Time;durP1;ratioP1;P1;durP2;ratioP2;P2;SDS_P1;SDS_P2;PMS_P1;PMS_P2;Temp;Humidity;BMP_temperature;BMP_pressure;BME280_temperature;BME280_humidity;BME280_pressure;Samples;Min_cycle;Max_cycle;Signal;HPM_P1;HPM_P2
2021/03/12 00:00:34;;;;;;;4.67;1.60;;;6.00;99.90;;;;;;5047604;28;20236;-52
2021/03/12 00:03:11;;;;;;;4.80;1.60;;;6.00;99.90;;;;;;5032890;28;20236;-51
2021/03/12 00:05:45;;;;;;;4.90;1.20;;;6.00;99.90;;;;;;5045937;28;20292;-52
2021/03/12 00:08:12;;;;;;;6.07;1.60;;;6.10;99.90;;;;;;5028353;28;20275;-52
2021/03/12 00:10:44;;;;;;;5.67;1.53;;;6.10;99.90;;;;;;5029110;28;20232;-54
2021/03/12 00:13:12;;;;;;;6.00;1.73;;;6.20;99.90;;;;;;5029159;28;20946;-54
2021/03/12 00:15:39;;;;;;;3.60;1.30;;;6.10;99.90;;;;;;5029364;28;20733;-52
2021/03/12 00:18:07;;;;;;;3.77;1.20;;;6.10;99.90;;;;;;5028223;28;20660;-51
2021/03/12 00:20:38;;;;;;;4.27;1.10;;;6.10;99.90;;;;;;5028848;28;20290;-50
2021/03/12 00:23:07;;;;;;;6.30;1.90;;;6.10;99.90;;;;;;5027890;28;20331;-51
2021/03/12 00:25:39;;;;;;;3.83;1.40;;;6.00;99.90;;;;;;5031347;28;20282;-50
2021/03/12 00:28:09;;;;;;;3.47;1.10;;;6.10;99.90;;;;;;5025869;28;20588;-51
2021/03/12 00:30:39;;;;;;;4.93;1.73;;;6.10;99.90;;;;;;5060576;28;20231;-53
2021/03/12 00:33:07;;;;;;;4.90;1.60;;;6.10;99.90;;;;;;5041505;28;20290;-50
2021/03/12 00:35:36;;;;;;;3.60;1.23;;;6.10;99.90;;;;;;5056263;28;20243;-52
2021/03/12 00:38:04;;;;;;;3.50;1.17;;;6.10;99.90;;;;;;5048497;28;20730;-51
2021/03/12 00:40:38;;;;;;;2.83;1.20;;;6.10;99.90;;;;;;5063163;28;20243;-50
2021/03/12 00:43:06;;;;;;;8.83;1.37;;;6.10;99.90;;;;;;5064116;28;20243;-53
2021/03/12 00:45:39;;;;;;;5.00;1.40;;;6.00;99.90;;;;;;5040398;28;20246;-51
2021/03/12 00:48:15;;;;;;;4.60;1.43;;;6.00;99.90;;;;;;5026549;28;20256;-52
2021/03/12 00:50:43;;;;;;;6.13;1.30;;;6.00;99.90;;;;;;5028370;28;20318;-51
2021/03/12 00:53:17;;;;;;;4.43;1.30;;;6.00;99.90;;;;;;5043873;28;20239;-51
2021/03/12 00:55:44;;;;;;;4.53;1.37;;;6.00;99.90;;;;;;5027346;28;20243;-53
2021/03/12 00:58:17;;;;;;;3.37;1.40;;;6.00;99.90;;;;;;5042449;28;20559;-52
2021/03/12 01:00:47;;;;;;;5.73;2.17;;;6.00;99.90;;;;;;5044741;28;20326;-55
2021/03/12 01:03:15;;;;;;;4.63;1.30;;;6.00;99.90;;;;;;5040079;28;20320;-51
2021/03/12 01:05:48;;;;;;;5.57;1.50;;;6.00;99.90;;;;;;5049197;28;20232;-51
2021/03/12 01:08:25;;;;;;;5.03;1.50;;;6.10;99.90;;;;;;5026290;28;20243;-52
2021/03/12 01:10:53;;;;;;;7.37;1.87;;;6.00;99.90;;;;;;5026503;28;20237;-52
2021/03/12 01:13:20;;;;;;;6.57;1.60;;;6.00;99.90;;;;;;5043508;28;20248;-54
2021/03/12 01:15:49;;;;;;;7.53;1.63;;;6.00;99.90;;;;;;5043324;28;20236;-53
2021/03/12 01:18:27;;;;;;;4.80;1.57;;;6.00;99.90;;;;;;5027211;28;20270;-53
2021/03/12 01:20:58;;;;;;;5.93;1.50;;;5.90;99.90;;;;;;5029899;28;20605;-52
2021/03/12 01:23:25;;;;;;;5.73;1.57;;;5.90;99.90;;;;;;5061918;28;20250;-53
2021/03/12 01:25:53;;;;;;;6.07;1.63;;;5.80;99.90;;;;;;5046795;28;20475;-52
2021/03/12 01:28:24;;;;;;;6.70;1.73;;;5.80;99.90;;;;;;5043012;28;20731;-50
2021/03/12 01:30:54;;;;;;;8.07;1.50;;;5.80;99.90;;;;;;5051539;28;20221;-52
2021/03/12 01:33:31;;;;;;;7.23;1.40;;;5.80;99.90;;;;;;5042960;28;20719;-52
2021/03/12 01:36:00;;;;;;;8.27;1.90;;;5.80;99.90;;;;;;5042749;28;20477;-51
2021/03/12 01:38:38;;;;;;;9.10;1.80;;;5.80;99.90;;;;;;5025228;28;20239;-54
2021/03/12 01:41:05;;;;;;;5.10;1.30;;;5.80;99.90;;;;;;5026271;28;20244;-51
2021/03/12 01:43:37;;;;;;;8.40;1.93;;;5.80;99.90;;;;;;5049187;28;20239;-51
2021/03/12 01:46:05;;;;;;;3.80;1.43;;;5.80;99.90;;;;;;5051249;28;20276;-52
2021/03/12 01:48:36;;;;;;;5.47;1.97;;;5.80;99.90;;;;;;5046253;28;21003;-51
2021/03/12 01:51:07;;;;;;;8.07;2.07;;;5.80;99.90;;;;;;5046220;28;20566;-50
2021/03/12 01:53:36;;;;;;;11.53;2.33;;;5.80;99.90;;;;;;5042026;28;20692;-52
2021/03/12 01:56:06;;;;;;;10.30;1.93;;;5.80;99.90;;;;;;5009782;28;20247;-52
2021/03/12 01:58:44;;;;;;;9.00;2.20;;;5.80;99.90;;;;;;5005557;28;20252;-52
2021/03/12 02:01:21;;;;;;;9.57;2.03;;;5.80;99.90;;;;;;5006222;28;20546;-51
2021/03/12 02:03:55;;;;;;;8.83;2.23;;;5.80;99.90;;;;;;5006469;28;20266;-51
2021/03/12 02:06:49;;;;;;;11.13;2.63;;;5.80;99.90;;;;;;5005943;28;20748;-54
2021/03/12 02:09:19;;;;;;;11.03;2.07;;;5.90;99.90;;;;;;5005261;28;20233;-51
2021/03/12 02:11:57;;;;;;;10.87;2.20;;;5.90;99.90;;;;;;5008169;28;20257;-52
2021/03/12 02:14:33;;;;;;;9.00;2.03;;;5.90;99.90;;;;;;5056456;28;20516;-51
2021/03/12 02:17:10;;;;;;;9.20;2.20;;;5.90;99.90;;;;;;5065490;28;20227;-50
2021/03/12 02:19:59;;;;;;;10.40;2.67;;;6.00;99.90;;;;;;5042559;28;20289;-51
2021/03/12 02:22:30;;;;;;;9.70;2.50;;;6.00;99.90;;;;;;5063683;28;20745;-55
2021/03/12 02:25:04;;;;;;;10.97;2.80;;;6.00;99.90;;;;;;5051121;28;20227;-51
2021/03/12 02:27:43;;;;;;;11.30;2.97;;;6.00;99.90;;;;;;5031525;28;20267;-51
2021/03/12 02:30:15;;;;;;;9.23;2.60;;;6.00;99.90;;;;;;5024978;28;20721;-51
2021/03/12 02:32:49;;;;;;;7.70;2.93;;;6.00;99.90;;;;;;5027141;28;20322;-51
2021/03/12 02:35:24;;;;;;;11.53;3.53;;;6.00;99.90;;;;;;5042600;28;20386;-51
2021/03/12 02:38:05;;;;;;;10.53;3.00;;;6.00;99.90;;;;;;5037213;28;20251;-52
2021/03/12 02:40:34;;;;;;;9.97;3.30;;;6.10;99.90;;;;;;5025481;28;20228;-50
2021/03/12 02:43:07;;;;;;;11.27;4.10;;;6.10;99.90;;;;;;5026971;28;20723;-52
2021/03/12 02:45:36;;;;;;;15.13;3.80;;;6.10;99.90;;;;;;5025699;28;20320;-53
2021/03/12 02:48:10;;;;;;;10.40;3.63;;;6.10;99.90;;;;;;5024847;28;20239;-51
2021/03/12 02:50:41;;;;;;;11.60;3.57;;;6.10;99.90;;;;;;5025076;28;20570;-51
2021/03/12 02:53:14;;;;;;;11.13;3.10;;;6.10;99.90;;;;;;5029386;28;20235;-50
2021/03/12 02:55:42;;;;;;;16.20;3.40;;;6.20;99.90;;;;;;5028757;28;20248;-52
2021/03/12 02:58:18;;;;;;;12.17;3.07;;;6.20;99.90;;;;;;5029755;28;20243;-52
2021/03/12 03:00:46;;;;;;;12.67;4.03;;;6.20;99.90;;;;;;5028883;28;21640;-52
2021/03/12 03:03:35;;;;;;;20.53;3.83;;;6.20;99.90;;;;;;5026938;28;20244;-51
2021/03/12 03:06:12;;;;;;;14.23;4.23;;;6.30;99.90;;;;;;5028798;28;20244;-52
2021/03/12 03:08:44;;;;;;;12.50;4.10;;;6.20;99.90;;;;;;5046337;28;20228;-51
2021/03/12 03:11:14;;;;;;;11.03;3.77;;;6.20;99.90;;;;;;5034660;28;20767;-51
2021/03/12 03:13:59;;;;;;;12.17;3.40;;;6.20;99.90;;;;;;5025708;28;20656;-51
2021/03/12 03:16:32;;;;;;;11.37;3.80;;;6.20;99.90;;;;;;5036425;28;20316;-50
2021/03/12 03:19:01;;;;;;;12.63;4.47;;;6.20;99.90;;;;;;5044787;28;20298;-53
2021/03/12 03:21:30;;;;;;;15.70;4.00;;;6.30;99.90;;;;;;5033245;28;20225;-51
2021/03/12 03:23:58;;;;;;;10.83;3.93;;;6.20;99.90;;;;;;5040911;28;20282;-51
2021/03/12 03:26:25;;;;;;;11.40;3.47;;;6.30;99.90;;;;;;5027742;28;20735;-51
2021/03/12 03:28:55;;;;;;;16.60;4.17;;;6.20;99.90;;;;;;5028047;28;20233;-51
2021/03/12 03:31:25;;;;;;;11.77;4.40;;;6.20;99.90;;;;;;5028584;28;20329;-51
2021/03/12 03:33:53;;;;;;;13.63;4.30;;;6.20;99.90;;;;;;5028654;28;20236;-51
2021/03/12 03:36:21;;;;;;;8.77;4.13;;;6.20;99.90;;;;;;5029393;28;20239;-52
2021/03/12 03:38:48;;;;;;;14.93;4.17;;;6.30;99.90;;;;;;5049164;28;20284;-52
2021/03/12 03:41:19;;;;;;;15.00;3.67;;;6.30;99.90;;;;;;5085015;28;20327;-50
2021/03/12 03:43:51;;;;;;;11.57;4.30;;;6.30;99.90;;;;;;5068370;28;20231;-51
2021/03/12 03:46:27;;;;;;;13.27;4.13;;;6.30;99.90;;;;;;5016565;28;20233;-50
2021/03/12 03:48:56;;;;;;;15.37;3.70;;;6.30;99.90;;;;;;5024085;28;20597;-51
2021/03/12 03:51:39;;;;;;;6.90;3.10;;;6.30;99.90;;;;;;5040212;28;20232;-51
2021/03/12 03:54:13;;;;;;;11.53;3.70;;;6.20;99.90;;;;;;5048190;28;20315;-54
2021/03/12 03:56:42;;;;;;;12.27;3.87;;;6.30;99.90;;;;;;5047803;28;20692;-51
2021/03/12 03:59:11;;;;;;;10.00;3.77;;;6.30;99.90;;;;;;5046670;28;20243;-51
2021/03/12 04:01:41;;;;;;;13.00;3.47;;;6.20;99.90;;;;;;5049295;28;20232;-51
2021/03/12 04:04:15;;;;;;;11.00;3.50;;;6.30;99.90;;;;;;5048350;28;20242;-50
2021/03/12 04:06:45;;;;;;;11.20;3.30;;;6.20;99.90;;;;;;5052184;28;20241;-52
2021/03/12 04:09:14;;;;;;;10.53;3.83;;;6.30;99.90;;;;;;5060160;28;20573;-51
2021/03/12 04:11:44;;;;;;;12.37;3.50;;;6.30;99.90;;;;;;5083237;28;20235;-50
2021/03/12 04:14:17;;;;;;;13.87;4.50;;;6.30;99.90;;;;;;5048328;28;20308;-53
2021/03/12 04:16:46;;;;;;;10.10;2.97;;;6.30;99.90;;;;;;5041569;28;20516;-55
2021/03/12 04:19:15;;;;;;;13.87;3.80;;;6.30;99.90;;;;;;5052491;28;20235;-50
2021/03/12 04:21:44;;;;;;;15.40;3.43;;;6.20;99.90;;;;;;5053799;28;20231;-51
2021/03/12 04:24:14;;;;;;;14.70;3.57;;;6.20;99.90;;;;;;5047700;28;20240;-55
2021/03/12 04:26:42;;;;;;;10.17;3.53;;;6.20;99.90;;;;;;5054461;28;20228;-51
2021/03/12 04:29:16;;;;;;;11.37;3.27;;;6.20;99.90;;;;;;5052294;28;20231;-51
2021/03/12 04:31:46;;;;;;;11.68;3.70;;;6.20;99.90;;;;;;5027872;28;20478;-51
2021/03/12 04:34:15;;;;;;;11.13;3.03;;;6.20;99.90;;;;;;5057702;28;20246;-51
2021/03/12 04:36:48;;;;;;;11.80;3.10;;;6.20;99.90;;;;;;5052403;28;20630;-51
2021/03/12 04:39:16;;;;;;;11.60;3.07;;;6.20;99.90;;;;;;5058091;28;20666;-51
2021/03/12 04:41:45;;;;;;;14.13;3.00;;;6.20;99.90;;;;;;5067227;28;20234;-50
2021/03/12 04:44:16;;;;;;;14.93;3.63;;;6.10;99.90;;;;;;5068193;28;20236;-52
2021/03/12 04:46:45;;;;;;;11.83;2.50;;;6.10;99.90;;;;;;5053488;28;20293;-53
2021/03/12 04:49:14;;;;;;;9.80;3.20;;;6.10;99.90;;;;;;5046278;28;20255;-52
2021/03/12 04:51:45;;;;;;;12.73;3.30;;;6.20;99.90;;;;;;5044248;28;20325;-50
2021/03/12 04:54:19;;;;;;;14.90;4.13;;;6.10;99.90;;;;;;5028192;28;20240;-53
2021/03/12 04:56:49;;;;;;;11.30;3.20;;;6.10;99.90;;;;;;5043337;28;20232;-51
2021/03/12 04:59:17;;;;;;;13.40;3.43;;;6.10;99.90;;;;;;5042717;28;20661;-52
2021/03/12 05:01:48;;;;;;;11.23;3.37;;;6.10;99.90;;;;;;5043919;28;20232;-50
2021/03/12 05:04:18;;;;;;;14.03;2.80;;;6.10;99.90;;;;;;5043774;28;20728;-52
2021/03/12 05:06:49;;;;;;;8.10;2.73;;;6.10;99.90;;;;;;5055034;28;20264;-51
2021/03/12 05:09:40;;;;;;;12.60;3.13;;;6.00;99.90;;;;;;5036944;28;20637;-51
2021/03/12 05:12:14;;;;;;;14.90;3.70;;;6.00;99.90;;;;;;5045782;28;20319;-52
2021/03/12 05:14:43;;;;;;;15.23;3.23;;;6.00;99.90;;;;;;5041185;28;20301;-50
2021/03/12 05:17:12;;;;;;;9.77;3.00;;;6.00;99.90;;;;;;5069718;28;20659;-51
2021/03/12 05:19:41;;;;;;;12.63;3.20;;;6.00;99.90;;;;;;5048739;28;20236;-51
2021/03/12 05:22:08;;;;;;;13.03;3.20;;;6.00;99.90;;;;;;5027367;28;20251;-52
2021/03/12 05:24:36;;;;;;;9.23;3.07;;;5.90;99.90;;;;;;5063215;28;20228;-51
2021/03/12 05:27:04;;;;;;;11.93;3.20;;;5.90;99.90;;;;;;5046342;28;20231;-51
2021/03/12 05:29:40;;;;;;;15.47;3.23;;;5.90;99.90;;;;;;5058825;28;20485;-55
2021/03/12 05:32:08;;;;;;;11.87;3.10;;;6.00;99.90;;;;;;5047511;28;20235;-50
2021/03/12 05:34:40;;;;;;;10.97;3.37;;;6.00;99.90;;;;;;5047763;28;20247;-51
2021/03/12 05:37:21;;;;;;;10.33;2.97;;;5.90;99.90;;;;;;5050908;28;20245;-52
2021/03/12 05:39:53;;;;;;;11.93;3.60;;;5.90;99.90;;;;;;5057695;28;20482;-50
2021/03/12 05:42:25;;;;;;;11.53;2.90;;;5.90;99.90;;;;;;5031978;28;20237;-53
2021/03/12 05:44:54;;;;;;;13.13;3.40;;;5.90;99.90;;;;;;5027514;28;20282;-51
2021/03/12 05:47:26;;;;;;;16.13;3.13;;;5.90;99.90;;;;;;5041895;28;20239;-54
2021/03/12 05:49:55;;;;;;;10.63;2.80;;;5.80;99.90;;;;;;5041996;28;20241;-54
2021/03/12 05:52:23;;;;;;;9.83;3.17;;;5.80;99.90;;;;;;5041010;28;20744;-52
2021/03/12 05:54:52;;;;;;;10.80;3.53;;;5.90;99.90;;;;;;5021738;28;20239;-52
2021/03/12 05:57:21;;;;;;;11.40;3.00;;;5.80;99.90;;;;;;5036357;28;20247;-52
2021/03/12 05:59:52;;;;;;;13.37;3.33;;;5.80;99.90;;;;;;5042134;28;20526;-52
2021/03/12 06:02:19;;;;;;;14.30;4.00;;;5.90;99.90;;;;;;5026964;28;20244;-53
2021/03/12 06:04:47;;;;;;;17.50;3.93;;;5.90;99.90;;;;;;5043595;28;20232;-53
2021/03/12 06:07:17;;;;;;;14.33;3.40;;;5.90;99.90;;;;;;5031299;28;20321;-54
2021/03/12 06:09:47;;;;;;;13.97;3.73;;;5.90;99.90;;;;;;5052658;28;20318;-54
2021/03/12 06:12:16;;;;;;;11.10;3.37;;;6.00;99.90;;;;;;5026801;28;20901;-56
2021/03/12 06:14:51;;;;;;;8.43;2.83;;;6.00;99.90;;;;;;5051748;28;20253;-56
2021/03/12 06:17:44;;;;;;;15.40;3.20;;;6.00;99.90;;;;;;5024526;28;20231;-55
2021/03/12 06:20:19;;;;;;;9.00;2.90;;;6.00;99.90;;;;;;5042229;28;20236;-54
2021/03/12 06:22:53;;;;;;;11.27;3.27;;;6.00;99.90;;;;;;5043393;28;20622;-53
2021/03/12 06:25:23;;;;;;;9.87;3.10;;;6.00;99.90;;;;;;5045119;28;20730;-53
2021/03/12 06:28:17;;;;;;;12.30;3.43;;;6.00;99.90;;;;;;5033533;28;20244;-52
2021/03/12 06:31:30;;;;;;;14.80;3.27;;;6.00;99.90;;;;;;5048483;28;20599;-52
2021/03/12 06:34:17;;;;;;;11.47;2.60;;;6.00;99.90;;;;;;5041051;28;20363;-51
2021/03/12 06:37:26;;;;;;;13.20;2.90;;;6.00;99.90;;;;;;5046970;28;20508;-51
2021/03/12 06:40:19;;;;;;;12.33;3.37;;;6.10;99.90;;;;;;5026985;28;20247;-53
2021/03/12 06:43:05;;;;;;;12.03;2.23;;;6.00;99.90;;;;;;5028919;28;20564;-53
2021/03/12 06:45:52;;;;;;;8.77;2.50;;;6.10;99.90;;;;;;5053534;28;20311;-56
2021/03/12 06:48:25;;;;;;;9.33;2.33;;;6.10;99.90;;;;;;5047876;28;20264;-52
2021/03/12 06:51:02;;;;;;;9.23;2.60;;;6.10;99.90;;;;;;5063212;28;20243;-55
2021/03/12 06:53:32;;;;;;;9.47;2.90;;;6.10;99.90;;;;;;5043670;28;21030;-51
2021/03/12 06:56:05;;;;;;;12.93;2.93;;;6.10;99.90;;;;;;5046036;28;20232;-54
2021/03/12 06:59:00;;;;;;;9.93;2.27;;;6.10;99.90;;;;;;5031125;28;20809;-52
2021/03/12 07:01:35;;;;;;;10.37;2.40;;;6.10;99.90;;;;;;5039690;28;20231;-52
2021/03/12 07:04:12;;;;;;;8.20;2.80;;;6.10;99.90;;;;;;5055094;28;20239;-51
2021/03/12 07:07:09;;;;;;;13.00;2.80;;;6.10;99.90;;;;;;5053719;28;20258;-52
2021/03/12 07:09:39;;;;;;;9.47;2.57;;;6.20;99.90;;;;;;5032280;28;20648;-52
2021/03/12 07:12:20;;;;;;;11.03;2.50;;;6.20;99.90;;;;;;5025341;28;20232;-53
2021/03/12 07:14:51;;;;;;;9.67;2.40;;;6.20;99.90;;;;;;5015728;28;20479;-53
2021/03/12 07:17:34;;;;;;;10.63;2.13;;;6.20;99.90;;;;;;5025820;28;20238;-52
2021/03/12 07:20:17;;;;;;;11.87;2.37;;;6.20;99.90;;;;;;5026306;28;20247;-51
2021/03/12 07:22:48;;;;;;;10.67;2.60;;;6.30;99.90;;;;;;5029327;28;20271;-56
2021/03/12 07:25:22;;;;;;;9.50;2.13;;;6.40;99.90;;;;;;5032076;28;20743;-52
2021/03/12 07:28:02;;;;;;;8.60;2.47;;;6.50;99.90;;;;;;5058637;28;20543;-51
2021/03/12 07:30:51;;;;;;;9.53;2.30;;;6.60;99.90;;;;;;5030815;28;20708;-52
2021/03/12 07:33:26;;;;;;;9.40;2.20;;;6.80;99.90;;;;;;5048722;28;20248;-54
2021/03/12 07:35:59;;;;;;;9.47;2.00;;;6.80;99.90;;;;;;5029562;28;20309;-55
2021/03/12 07:38:42;;;;;;;8.87;1.90;;;6.70;99.90;;;;;;5048979;28;20240;-51
2021/03/12 07:41:16;;;;;;;8.10;2.13;;;6.60;99.90;;;;;;5041759;28;20235;-54
2021/03/12 07:44:05;;;;;;;8.40;2.27;;;6.60;99.90;;;;;;5046177;28;20243;-52
2021/03/12 07:46:50;;;;;;;7.53;2.07;;;6.60;99.90;;;;;;5035551;28;20329;-54
2021/03/12 07:49:37;;;;;;;9.93;2.27;;;6.60;99.90;;;;;;5043508;28;20235;-52
2021/03/12 07:52:10;;;;;;;8.50;1.77;;;6.60;99.90;;;;;;5044339;28;20246;-55
2021/03/12 07:54:49;;;;;;;8.57;1.90;;;6.70;99.90;;;;;;5022542;28;20231;-51
2021/03/12 07:57:40;;;;;;;9.10;2.10;;;6.80;99.90;;;;;;5059372;28;20290;-53
2021/03/12 08:00:24;;;;;;;6.70;2.13;;;6.80;99.90;;;;;;5044299;28;20752;-53
2021/03/12 08:03:28;;;;;;;10.10;2.30;;;6.80;99.90;;;;;;5055572;28;20552;-56
2021/03/12 08:06:35;;;;;;;11.97;2.30;;;6.90;99.90;;;;;;5037298;28;20255;-54
2021/03/12 08:09:34;;;;;;;9.57;2.00;;;7.00;99.90;;;;;;5048953;28;20267;-55
2021/03/12 08:12:30;;;;;;;8.37;2.17;;;7.00;99.90;;;;;;5036973;28;20236;-54
2021/03/12 08:15:12;;;;;;;8.57;1.90;;;7.00;99.90;;;;;;5044574;28;20255;-52
2021/03/12 08:18:25;;;;;;;7.70;2.10;;;7.00;99.90;;;;;;5048201;28;20239;-51
2021/03/12 08:21:37;;;;;;;10.17;2.37;;;7.00;99.90;;;;;;5045487;28;20244;-51
2021/03/12 08:24:52;;;;;;;11.10;2.83;;;7.20;99.90;;;;;;5048726;28;20239;-53
2021/03/12 08:27:45;;;;;;;8.10;2.03;;;7.40;99.90;;;;;;5039002;28;20235;-55
2021/03/12 08:30:48;;;;;;;6.27;2.40;;;7.40;99.90;;;;;;5044572;28;20236;-55
2021/03/12 08:33:41;;;;;;;9.40;2.40;;;7.60;99.90;;;;;;5033623;28;20692;-54
2021/03/12 08:36:09;;;;;;;10.60;2.80;;;7.60;99.90;;;;;;5033997;28;20231;-54
2021/03/12 08:38:54;;;;;;;8.77;2.23;;;7.70;99.90;;;;;;5026752;28;20251;-52
2021/03/12 08:41:42;;;;;;;10.63;2.80;;;7.60;99.90;;;;;;5018827;28;20237;-52
2021/03/12 08:44:28;;;;;;;9.73;2.90;;;7.80;99.90;;;;;;5008829;28;20279;-56
2021/03/12 08:47:19;;;;;;;9.77;3.13;;;8.30;99.90;;;;;;5023188;28;20241;-54
2021/03/12 08:49:56;;;;;;;7.23;2.03;;;8.60;99.90;;;;;;5006546;28;20236;-53
2021/03/12 08:52:32;;;;;;;10.00;2.63;;;8.70;99.90;;;;;;5038557;28;20776;-52
2021/03/12 08:55:19;;;;;;;7.87;2.13;;;8.90;99.90;;;;;;5023327;28;20598;-51
2021/03/12 08:57:49;;;;;;;7.50;2.30;;;9.00;99.90;;;;;;5022579;28;20369;-52
2021/03/12 09:00:21;;;;;;;7.60;2.13;;;9.00;99.90;;;;;;5014364;28;20610;-53
2021/03/12 09:03:15;;;;;;;7.87;2.50;;;8.90;99.90;;;;;;5046076;28;20301;-55
2021/03/12 09:05:54;;;;;;;8.67;2.00;;;8.60;99.90;;;;;;5059675;28;20223;-53
2021/03/12 09:08:34;;;;;;;10.30;2.37;;;8.30;99.90;;;;;;5064957;28;20235;-52
2021/03/12 09:11:26;;;;;;;8.20;2.20;;;8.10;99.90;;;;;;5021383;28;20267;-52
2021/03/12 09:14:05;;;;;;;7.60;2.27;;;8.00;99.90;;;;;;5062741;28;20227;-54
2021/03/12 09:16:37;;;;;;;11.93;2.60;;;8.00;99.90;;;;;;5026890;28;20304;-52
2021/03/12 09:19:13;;;;;;;12.73;2.40;;;7.90;99.90;;;;;;5022324;28;20256;-52
2021/03/12 09:21:57;;;;;;;12.87;2.70;;;8.20;99.90;;;;;;5053088;28;20236;-52
2021/03/12 09:24:30;;;;;;;6.40;2.07;;;8.30;99.90;;;;;;5062691;28;20224;-56
2021/03/12 09:26:59;;;;;;;11.73;2.77;;;8.20;99.90;;;;;;5037372;28;20251;-54
2021/03/12 09:29:38;;;;;;;10.30;2.53;;;8.20;99.90;;;;;;5043752;28;20724;-54
2021/03/12 09:32:11;;;;;;;13.73;3.10;;;8.20;99.90;;;;;;5061792;28;20232;-52
2021/03/12 09:34:54;;;;;;;12.47;3.17;;;8.30;99.90;;;;;;5050149;28;20291;-53
2021/03/12 09:37:42;;;;;;;10.53;3.03;;;8.20;99.90;;;;;;5041755;28;20232;-55
2021/03/12 09:40:34;;;;;;;9.70;2.53;;;8.30;99.90;;;;;;5035026;28;20439;-54
2021/03/12 09:43:10;;;;;;;9.43;2.83;;;8.40;99.90;;;;;;5030931;28;20694;-55
2021/03/12 09:45:48;;;;;;;11.23;3.00;;;8.50;99.90;;;;;;5023975;28;20352;-54
2021/03/12 09:48:31;;;;;;;11.23;2.73;;;8.50;99.90;;;;;;5048713;28;20242;-53
2021/03/12 09:51:04;;;;;;;10.37;3.10;;;8.50;99.90;;;;;;5061939;28;20762;-55
2021/03/12 09:53:34;;;;;;;10.77;3.03;;;8.40;99.90;;;;;;5062302;28;20232;-55
2021/03/12 09:56:09;;;;;;;9.60;2.80;;;8.30;99.90;;;;;;5040635;28;20285;-52
2021/03/12 09:58:44;;;;;;;10.63;2.63;;;8.30;99.90;;;;;;5020232;28;20244;-51
2021/03/12 10:01:37;;;;;;;11.43;2.80;;;8.30;99.90;;;;;;5024515;28;20236;-53
2021/03/12 10:04:25;;;;;;;8.70;2.97;;;8.30;99.90;;;;;;5017286;28;20253;-55
2021/03/12 10:07:05;;;;;;;12.17;3.10;;;8.40;99.90;;;;;;5047614;28;20287;-55
2021/03/12 10:09:35;;;;;;;8.93;3.47;;;8.30;99.90;;;;;;5032188;28;20711;-55
2021/03/12 10:12:17;;;;;;;11.00;3.47;;;8.40;99.90;;;;;;5045191;28;20611;-53
2021/03/12 10:14:51;;;;;;;8.23;2.90;;;8.40;99.90;;;;;;5008226;28;20225;-53
2021/03/12 10:17:39;;;;;;;11.50;3.17;;;8.70;99.90;;;;;;5007594;28;20584;-55
2021/03/12 10:20:24;;;;;;;9.20;2.83;;;8.90;99.90;;;;;;5040818;28;20239;-54
2021/03/12 10:22:56;;;;;;;8.93;2.90;;;8.90;99.90;;;;;;5026785;28;20224;-55
2021/03/12 10:25:28;;;;;;;9.90;2.90;;;9.00;99.90;;;;;;5027183;28;20240;-55
2021/03/12 10:27:58;;;;;;;10.57;2.83;;;9.00;99.90;;;;;;5006635;28;20245;-53
2021/03/12 10:30:40;;;;;;;9.07;2.70;;;9.20;99.90;;;;;;5026598;28;20235;-53
2021/03/12 10:33:17;;;;;;;11.27;3.00;;;9.10;99.90;;;;;;5030931;28;20239;-52
2021/03/12 10:35:47;;;;;;;13.70;3.57;;;8.90;99.90;;;;;;5018755;28;20569;-54
2021/03/12 10:38:18;;;;;;;8.33;3.10;;;8.80;99.90;;;;;;5022134;28;20233;-55
2021/03/12 10:40:49;;;;;;;11.47;2.80;;;8.70;99.90;;;;;;5057906;28;20695;-56
2021/03/12 10:43:19;;;;;;;9.73;2.80;;;8.70;99.90;;;;;;5032134;28;20227;-52
2021/03/12 10:45:50;;;;;;;8.47;2.37;;;8.70;99.90;;;;;;5034703;28;20240;-55
2021/03/12 10:48:20;;;;;;;8.47;2.60;;;8.60;99.90;;;;;;5038240;28;20254;-54
2021/03/12 10:51:03;;;;;;;9.23;2.60;;;8.50;99.90;;;;;;5046000;28;20250;-53
2021/03/12 10:53:32;;;;;;;10.13;3.03;;;8.50;99.90;;;;;;5035882;28;20316;-53
2021/03/12 10:56:05;;;;;;;12.43;2.97;;;8.50;99.90;;;;;;5036536;28;20237;-52
2021/03/12 10:58:34;;;;;;;8.77;2.77;;;8.50;99.90;;;;;;5039221;28;20237;-54
2021/03/12 11:01:12;;;;;;;10.57;3.23;;;8.40;99.90;;;;;;5034850;28;20311;-56
2021/03/12 11:03:42;;;;;;;13.37;2.40;;;8.50;99.90;;;;;;5037621;28;20237;-53
2021/03/12 11:06:11;;;;;;;9.50;2.70;;;8.60;99.90;;;;;;5032474;28;20263;-54
2021/03/12 11:08:39;;;;;;;10.07;2.90;;;8.70;99.90;;;;;;5038421;28;20248;-53
2021/03/12 11:11:10;;;;;;;8.27;2.57;;;8.70;99.90;;;;;;5026324;28;20431;-56
2021/03/12 11:13:41;;;;;;;10.20;2.80;;;8.70;99.90;;;;;;5037249;28;20233;-56
2021/03/12 11:16:10;;;;;;;8.83;2.90;;;9.10;99.90;;;;;;5047193;28;20509;-53
2021/03/12 11:18:38;;;;;;;8.13;2.43;;;9.60;99.90;;;;;;5043445;28;20236;-56
2021/03/12 11:21:09;;;;;;;10.40;2.57;;;10.00;99.90;;;;;;5047841;28;20659;-54
2021/03/12 11:23:37;;;;;;;9.47;2.37;;;10.30;99.90;;;;;;5036064;28;20234;-53
2021/03/12 11:26:07;;;;;;;8.93;2.60;;;10.40;99.90;;;;;;5043609;28;20756;-54
2021/03/12 11:28:34;;;;;;;8.27;2.50;;;10.40;99.90;;;;;;5045078;28;20611;-54
2021/03/12 11:31:02;;;;;;;7.83;2.17;;;10.10;99.90;;;;;;5048889;28;20757;-57
2021/03/12 11:33:31;;;;;;;7.37;2.43;;;9.80;99.90;;;;;;5040799;28;20238;-55
2021/03/12 11:36:00;;;;;;;6.70;1.83;;;9.70;99.90;;;;;;5041734;28;20243;-54
2021/03/12 11:38:28;;;;;;;9.20;2.40;;;9.60;99.90;;;;;;5030827;28;20800;-53
2021/03/12 11:40:56;;;;;;;9.57;2.27;;;9.50;99.90;;;;;;5031860;28;20467;-52
2021/03/12 11:43:25;;;;;;;5.83;2.33;;;9.40;99.90;;;;;;5032865;28;20245;-57
2021/03/12 11:45:53;;;;;;;11.97;2.50;;;9.30;99.90;;;;;;5031409;28;20331;-56
2021/03/12 11:48:21;;;;;;;7.17;2.10;;;9.20;99.90;;;;;;5027159;28;20257;-54
2021/03/12 11:50:51;;;;;;;9.47;2.30;;;9.20;99.90;;;;;;5031112;28;20242;-53
2021/03/12 11:53:18;;;;;;;9.83;2.70;;;9.10;99.90;;;;;;5031915;28;20236;-57
2021/03/12 11:55:46;;;;;;;10.03;2.63;;;9.10;99.90;;;;;;5029545;28;20226;-56
2021/03/12 11:58:13;;;;;;;7.03;2.07;;;9.10;99.90;;;;;;5027384;28;20240;-55
2021/03/12 12:00:43;;;;;;;7.73;1.93;;;9.20;99.90;;;;;;5032274;28;20293;-54
2021/03/12 12:03:11;;;;;;;11.50;2.17;;;9.10;99.90;;;;;;5042370;28;20263;-54
2021/03/12 12:05:38;;;;;;;8.57;2.10;;;9.20;99.90;;;;;;5039820;28;20233;-56
2021/03/12 12:08:06;;;;;;;7.80;2.13;;;9.10;99.90;;;;;;5040973;28;20298;-55
2021/03/12 12:10:33;;;;;;;7.00;1.80;;;9.20;99.90;;;;;;5039137;28;20264;-56
2021/03/12 12:13:00;;;;;;;8.70;2.30;;;9.20;99.90;;;;;;5036390;28;20237;-56
2021/03/12 12:15:30;;;;;;;4.90;1.97;;;9.20;99.90;;;;;;5041469;28;20249;-57
2021/03/12 12:18:00;;;;;;;7.87;2.20;;;9.10;99.90;;;;;;5033142;28;20326;-55
2021/03/12 12:20:30;;;;;;;9.43;2.20;;;9.00;99.90;;;;;;5022313;28;20255;-56
2021/03/12 12:22:58;;;;;;;6.83;2.10;;;8.90;99.90;;;;;;5017051;28;20271;-56
2021/03/12 12:25:25;;;;;;;5.43;2.07;;;8.90;99.90;;;;;;5024522;28;20242;-56
2021/03/12 12:27:53;;;;;;;6.23;1.93;;;8.80;99.90;;;;;;5015859;28;20331;-57
2021/03/12 12:30:21;;;;;;;7.63;2.20;;;8.70;99.90;;;;;;5030508;28;20349;-53
2021/03/12 12:32:48;;;;;;;8.47;2.73;;;8.70;99.90;;;;;;5018995;28;20324;-55
2021/03/12 12:35:17;;;;;;;9.43;2.00;;;8.70;99.90;;;;;;5017752;28;20331;-53
2021/03/12 12:37:49;;;;;;;7.87;1.70;;;8.90;99.90;;;;;;5021635;28;20243;-53
2021/03/12 12:40:18;;;;;;;10.30;2.33;;;9.10;99.90;;;;;;5017156;28;20252;-52
2021/03/12 12:42:45;;;;;;;7.90;2.10;;;9.30;99.90;;;;;;5019983;28;20274;-56
2021/03/12 12:45:15;;;;;;;8.13;2.23;;;9.30;99.90;;;;;;5020670;28;20245;-56
2021/03/12 12:47:43;;;;;;;8.33;2.07;;;9.40;99.90;;;;;;5017011;28;20307;-56
2021/03/12 12:50:12;;;;;;;5.80;2.30;;;9.40;99.90;;;;;;5016637;28;20244;-55
2021/03/12 12:52:40;;;;;;;8.57;2.13;;;9.40;99.90;;;;;;5018612;28;20268;-54
2021/03/12 12:55:10;;;;;;;6.40;2.03;;;9.50;99.90;;;;;;5016287;28;20263;-55
2021/03/12 12:57:39;;;;;;;9.00;2.30;;;9.30;99.90;;;;;;5023436;28;20240;-55
2021/03/12 13:00:09;;;;;;;11.67;2.50;;;9.50;99.90;;;;;;5027878;28;20249;-54
2021/03/12 13:02:37;;;;;;;12.97;2.53;;;9.50;99.90;;;;;;5024997;28;20279;-55
2021/03/12 13:05:06;;;;;;;8.37;2.80;;;9.40;99.90;;;;;;5019627;28;20247;-54
2021/03/12 13:07:33;;;;;;;8.33;2.97;;;9.50;99.90;;;;;;5021491;28;20393;-52
2021/03/12 13:10:02;;;;;;;12.70;2.97;;;9.50;99.90;;;;;;5019670;28;20236;-57
2021/03/12 13:12:29;;;;;;;11.50;2.73;;;9.60;99.90;;;;;;5018977;28;20276;-56
2021/03/12 13:14:56;;;;;;;9.93;2.57;;;9.50;99.90;;;;;;5013964;28;20242;-56
2021/03/12 13:17:24;;;;;;;9.70;2.10;;;9.50;99.90;;;;;;5017394;28;20240;-55
2021/03/12 13:19:54;;;;;;;8.50;3.00;;;9.50;99.90;;;;;;5021646;28;20236;-55
2021/03/12 13:22:23;;;;;;;8.13;2.90;;;9.50;99.90;;;;;;5015842;28;20240;-57
2021/03/12 13:24:51;;;;;;;12.60;3.00;;;9.40;99.90;;;;;;5017144;28;20259;-52
2021/03/12 13:27:19;;;;;;;11.53;2.70;;;9.30;99.90;;;;;;5021013;28;20249;-55
2021/03/12 13:29:47;;;;;;;8.37;2.60;;;9.20;99.90;;;;;;5014755;28;20240;-53